Time;durP1;ratioP1;P1;durP2;ratioP2;P2;SDS_P1;SDS_P2;PMS_P1;PMS_P2;Temp;Humidity;BMP_temperature;BMP_pressure;BME280_temperature;BME280_humidity;BME280_pressure;Samples;Min_cycle;Max_cycle;Signal;HPM_P1;HPM_P2
2022/11/10 00:00:20;;;;;;;35.47;9.80;;;;;;;;;;5066900;28;20124;-65
2022/11/10 00:02:46;;;;;;;19.80;6.73;;;;;;;;;;5050492;28;20102;-66
2022/11/10 00:05:13;;;;;;;31.27;8.83;;;;;;;;;;5061419;28;20040;-66
2022/11/10 00:07:39;;;;;;;23.20;6.90;;;;;;;;;;5052541;28;20044;-65
2022/11/10 00:10:06;;;;;;;34.97;8.37;;;;;;;;;;5049965;28;20041;-66
2022/11/10 00:12:33;;;;;;;28.23;8.93;;;;;;;;;;5066631;28;20118;-66
2022/11/10 00:17:44;;;;;;;27.23;9.10;;;;;;;;;;5056549;28;20048;-66
2022/11/10 00:20:11;;;;;;;29.53;8.83;;;;;;;;;;5064552;28;20114;-66
2022/11/10 00:22:38;;;;;;;29.03;7.20;;;;;;;;;;5055501;28;20052;-67
2022/11/10 00:25:04;;;;;;;21.50;7.47;;;;;;;;;;5061453;28;20051;-66
2022/11/10 00:27:31;;;;;;;24.73;7.57;;;;;;;;;;5068339;28;20063;-66
2022/11/10 00:29:57;;;;;;;31.20;9.30;;;;;;;;;;5067669;28;20052;-66
2022/11/10 00:32:24;;;;;;;37.63;8.07;;;;;;;;;;5069959;28;20052;-65
2022/11/10 00:34:50;;;;;;;27.57;9.03;;;;;;;;;;5057111;28;20202;-66
2022/11/10 00:37:16;;;;;;;30.03;9.37;;;;;;;;;;5048971;28;20045;-66
2022/11/10 00:39:42;;;;;;;31.23;9.07;;;;;;;;;;5056326;28;20134;-66
2022/11/10 00:42:08;;;;;;;35.43;9.90;;;;;;;;;;5054586;28;20051;-66
2022/11/10 00:44:34;;;;;;;31.70;8.93;;;;;;;;;;5050035;28;20049;-66
2022/11/10 00:47:00;;;;;;;34.40;10.73;;;;;;;;;;5048085;28;20094;-66
2022/11/10 00:49:26;;;;;;;24.00;8.57;;;;;;;;;;5058851;28;20055;-66
2022/11/10 00:51:52;;;;;;;31.93;9.67;;;;;;;;;;5068120;28;20056;-66
2022/11/10 00:54:19;;;;;;;30.73;11.13;;;;;;;;;;5065176;28;20177;-66
2022/11/10 00:56:45;;;;;;;34.53;11.03;;;;;;;;;;5068150;28;20109;-66
2022/11/10 00:59:11;;;;;;;34.53;9.97;;;;;;;;;;5054251;28;20044;-66
2022/11/10 01:01:37;;;;;;;42.20;12.80;;;;;;;;;;5065103;28;20056;-66
2022/11/10 01:04:03;;;;;;;31.53;11.47;;;;;;;;;;5066981;28;20049;-66
2022/11/10 01:06:29;;;;;;;37.93;11.30;;;;;;;;;;5048869;28;20411;-66
2022/11/10 01:08:55;;;;;;;33.60;11.90;;;;;;;;;;5050139;28;20111;-66
2022/11/10 01:11:23;;;;;;;38.40;11.03;;;;;;;;;;5069007;28;20041;-66
2022/11/10 01:13:50;;;;;;;41.57;13.20;;;;;;;;;;5063086;28;20440;-66
2022/11/10 01:16:18;;;;;;;34.23;11.80;;;;;;;;;;5051237;28;20098;-66
2022/11/10 01:18:48;;;;;;;38.97;12.87;;;;;;;;;;5064521;28;20048;-66
2022/11/10 01:21:14;;;;;;;41.00;13.20;;;;;;;;;;5067423;28;20055;-66
2022/11/10 01:23:40;;;;;;;45.57;14.70;;;;;;;;;;5066631;28;20074;-66
2022/11/10 01:26:07;;;;;;;34.20;12.50;;;;;;;;;;5052496;28;20400;-66
2022/11/10 01:28:33;;;;;;;41.87;11.97;;;;;;;;;;5051842;28;20051;-66
2022/11/10 01:31:00;;;;;;;38.40;11.80;;;;;;;;;;5053503;28;20048;-66
2022/11/10 01:33:26;;;;;;;32.23;11.30;;;;;;;;;;5054713;28;20083;-66
2022/11/10 01:35:53;;;;;;;41.43;13.00;;;;;;;;;;5065936;28;20051;-66
2022/11/10 01:38:19;;;;;;;28.77;11.07;;;;;;;;;;5068556;28;20868;-66
2022/11/10 01:40:46;;;;;;;39.17;12.37;;;;;;;;;;5067442;28;20162;-66
2022/11/10 01:43:12;;;;;;;43.00;13.10;;;;;;;;;;5052593;28;20037;-66
2022/11/10 01:45:38;;;;;;;31.70;12.60;;;;;;;;;;5059113;28;20419;-66
2022/11/10 01:48:05;;;;;;;40.57;12.40;;;;;;;;;;5061359;28;20494;-66
2022/11/10 01:50:33;;;;;;;42.77;11.83;;;;;;;;;;5067737;28;20045;-66
2022/11/10 01:53:01;;;;;;;35.23;11.17;;;;;;;;;;5060672;28;20037;-66
2022/11/10 01:55:28;;;;;;;39.60;12.93;;;;;;;;;;5048515;28;20172;-66
2022/11/10 01:57:54;;;;;;;33.53;10.63;;;;;;;;;;5056416;28;20052;-65
2022/11/10 02:00:20;;;;;;;30.77;10.67;;;;;;;;;;5068034;28;20044;-66
2022/11/10 02:02:49;;;;;;;41.63;10.30;;;;;;;;;;5067757;28;20048;-66
2022/11/10 02:05:15;;;;;;;31.83;9.27;;;;;;;;;;5068375;28;20055;-65
2022/11/10 02:07:42;;;;;;;26.60;9.53;;;;;;;;;;5064266;28;20048;-66
2022/11/10 02:10:15;;;;;;;27.10;10.27;;;;;;;;;;5052900;28;20794;-66
2022/11/10 02:12:41;;;;;;;32.78;9.18;;;;;;;;;;5052720;28;20165;-66
2022/11/10 02:15:08;;;;;;;33.23;10.40;;;;;;;;;;5060922;28;20060;-66
2022/11/10 02:17:35;;;;;;;40.57;9.23;;;;;;;;;;5055253;28;20049;-66
2022/11/10 02:20:03;;;;;;;34.53;8.70;;;;;;;;;;5052765;28;20114;-66
2022/11/10 02:22:30;;;;;;;24.13;8.80;;;;;;;;;;5055012;28;20471;-65
2022/11/10 02:24:56;;;;;;;37.53;10.23;;;;;;;;;;5070519;28;20052;-66
2022/11/10 02:27:22;;;;;;;31.07;9.00;;;;;;;;;;5068320;28;20411;-66
2022/11/10 02:29:48;;;;;;;32.80;9.70;;;;;;;;;;5050615;28;20044;-66
2022/11/10 02:32:15;;;;;;;26.03;9.60;;;;;;;;;;5068156;28;20201;-65
2022/11/10 02:34:41;;;;;;;29.30;9.13;;;;;;;;;;5056221;28;20048;-66
2022/11/10 02:37:09;;;;;;;22.90;9.30;;;;;;;;;;5071784;28;20055;-65
2022/11/10 02:39:35;;;;;;;29.47;9.67;;;;;;;;;;5070259;28;20048;-66
2022/11/10 02:42:01;;;;;;;36.30;11.53;;;;;;;;;;5052173;28;20051;-65
2022/11/10 02:44:27;;;;;;;39.30;13.13;;;;;;;;;;5055381;28;20048;-66
2022/11/10 02:46:53;;;;;;;52.20;15.13;;;;;;;;;;5053789;28;20048;-66
2022/11/10 02:49:19;;;;;;;52.13;16.70;;;;;;;;;;5051872;28;20072;-65
2022/11/10 02:51:45;;;;;;;41.37;15.70;;;;;;;;;;5051482;28;20044;-66
2022/11/10 02:54:11;;;;;;;41.63;16.13;;;;;;;;;;5051701;28;20052;-66
2022/11/10 02:56:37;;;;;;;54.20;19.90;;;;;;;;;;5067601;28;20045;-65
2022/11/10 02:59:03;;;;;;;54.77;19.67;;;;;;;;;;5058360;28;20040;-65
2022/11/10 03:01:29;;;;;;;49.13;19.00;;;;;;;;;;5054306;28;20169;-65
2022/11/10 03:03:55;;;;;;;63.17;21.13;;;;;;;;;;5051327;28;20059;-66
2022/11/10 03:06:21;;;;;;;65.00;20.57;;;;;;;;;;5051150;28;20052;-66
2022/11/10 03:08:48;;;;;;;53.57;19.97;;;;;;;;;;5049722;28;20048;-65
2022/11/10 03:11:14;;;;;;;56.83;22.03;;;;;;;;;;5050911;28;20088;-66
2022/11/10 03:13:40;;;;;;;68.87;22.40;;;;;;;;;;5050872;28;20134;-66
2022/11/10 03:16:06;;;;;;;56.47;22.43;;;;;;;;;;5052968;28;20495;-66
2022/11/10 03:18:33;;;;;;;64.87;22.70;;;;;;;;;;5057085;28;20072;-66
2022/11/10 03:20:59;;;;;;;66.17;23.43;;;;;;;;;;5063403;28;20048;-66
2022/11/10 03:23:25;;;;;;;76.70;25.00;;;;;;;;;;5067392;28;20047;-66
2022/11/10 03:25:51;;;;;;;67.50;23.97;;;;;;;;;;5050513;28;20044;-66
2022/11/10 03:28:17;;;;;;;69.93;25.27;;;;;;;;;;5062832;28;20077;-66
2022/11/10 03:30:43;;;;;;;68.07;26.27;;;;;;;;;;5062673;28;20103;-66
2022/11/10 03:33:09;;;;;;;56.93;21.33;;;;;;;;;;5070986;28;20127;-66
2022/11/10 03:35:35;;;;;;;67.67;23.13;;;;;;;;;;5070619;28;20041;-66
2022/11/10 03:38:01;;;;;;;63.73;22.30;;;;;;;;;;5069651;28;20483;-66
2022/11/10 03:40:27;;;;;;;51.43;21.50;;;;;;;;;;5069755;28;20073;-66
2022/11/10 03:42:53;;;;;;;68.40;23.87;;;;;;;;;;5070564;28;20537;-66
2022/11/10 03:45:19;;;;;;;68.63;22.43;;;;;;;;;;5068380;28;20047;-66
2022/11/10 03:47:46;;;;;;;66.40;22.77;;;;;;;;;;5070639;28;20127;-66
2022/11/10 03:50:12;;;;;;;51.70;20.63;;;;;;;;;;5070221;28;20052;-66
2022/11/10 03:52:39;;;;;;;57.03;21.27;;;;;;;;;;5049788;28;20044;-66
2022/11/10 03:55:05;;;;;;;57.97;23.07;;;;;;;;;;5050485;28;20041;-66
2022/11/10 03:57:31;;;;;;;52.23;19.90;;;;;;;;;;5050271;28;20769;-66
2022/11/10 03:59:57;;;;;;;57.50;22.20;;;;;;;;;;5049830;28;20049;-66
2022/11/10 04:02:23;;;;;;;47.23;20.03;;;;;;;;;;5050080;28;20560;-66
2022/11/10 04:10:19;;;;;;;69.70;24.40;;;;;;;;;;5082022;28;20723;-66
2022/11/10 04:15:42;;;;;;;63.83;24.63;;;;;;;;;;5069875;28;20454;-65
2022/11/10 04:18:23;;;;;;;58.37;23.37;;;;;;;;;;5070041;28;20045;-66
2022/11/10 04:20:50;;;;;;;66.00;22.97;;;;;;;;;;5069823;28;20041;-66
2022/11/10 04:23:25;;;;;;;55.83;22.20;;;;;;;;;;5069244;28;20048;-66
2022/11/10 04:28:37;;;;;;;44.53;20.73;;;;;;;;;;5049673;28;20732;-66
2022/11/10 04:31:03;;;;;;;58.23;23.37;;;;;;;;;;5049530;28;20434;-66
2022/11/10 04:33:29;;;;;;;55.50;19.80;;;;;;;;;;5057492;28;20055;-65
2022/11/10 04:35:55;;;;;;;46.50;20.93;;;;;;;;;;5069743;28;20040;-66
2022/11/10 04:38:21;;;;;;;54.67;21.67;;;;;;;;;;5067858;28;20056;-66
2022/11/10 04:40:47;;;;;;;71.57;23.70;;;;;;;;;;5069258;28;20506;-66
2022/11/10 04:43:13;;;;;;;60.47;22.20;;;;;;;;;;5069485;28;20570;-65
2022/11/10 04:45:39;;;;;;;60.07;23.47;;;;;;;;;;5068463;28;20056;-66
2022/11/10 04:48:05;;;;;;;56.13;22.77;;;;;;;;;;5069174;28;20044;-66
2022/11/10 04:50:31;;;;;;;50.53;21.67;;;;;;;;;;5069192;28;20037;-65
2022/11/10 04:52:57;;;;;;;67.97;26.20;;;;;;;;;;5068856;28;20564;-65
2022/11/10 04:55:23;;;;;;;67.07;24.77;;;;;;;;;;5069035;28;20562;-66
2022/11/10 04:57:49;;;;;;;71.90;25.00;;;;;;;;;;5068088;28;20079;-66
2022/11/10 05:00:16;;;;;;;63.40;24.30;;;;;;;;;;5075691;28;20040;-66
2022/11/10 05:02:42;;;;;;;60.27;22.80;;;;;;;;;;5047621;28;20068;-66
2022/11/10 05:05:08;;;;;;;79.03;26.23;;;;;;;;;;5048958;28;20048;-66
2022/11/10 05:07:34;;;;;;;54.73;23.83;;;;;;;;;;5049004;28;20048;-66
2022/11/10 05:10:00;;;;;;;64.23;25.30;;;;;;;;;;5048881;28;20044;-66
2022/11/10 05:12:26;;;;;;;71.10;27.67;;;;;;;;;;5060166;28;20430;-66
2022/11/10 05:14:53;;;;;;;70.33;26.67;;;;;;;;;;5068505;28;20084;-66
2022/11/10 05:17:19;;;;;;;66.07;24.40;;;;;;;;;;5061194;28;20490;-66
2022/11/10 05:19:46;;;;;;;66.57;24.93;;;;;;;;;;5048542;28;20081;-66
2022/11/10 05:22:12;;;;;;;71.63;26.90;;;;;;;;;;5048768;28;20529;-66
2022/11/10 05:24:38;;;;;;;56.97;24.20;;;;;;;;;;5048475;28;20495;-66
2022/11/10 05:27:05;;;;;;;58.27;25.33;;;;;;;;;;5059958;28;20052;-66
2022/11/10 05:29:31;;;;;;;75.20;27.77;;;;;;;;;;5067835;28;20132;-66
2022/11/10 05:31:57;;;;;;;80.90;28.00;;;;;;;;;;5067261;28;20131;-66
2022/11/10 05:34:23;;;;;;;57.27;23.43;;;;;;;;;;5068163;28;20068;-66
2022/11/10 05:36:49;;;;;;;66.77;25.53;;;;;;;;;;5068577;28;20048;-66
2022/11/10 05:39:15;;;;;;;69.97;26.70;;;;;;;;;;5066605;28;20049;-66
2022/11/10 05:41:41;;;;;;;72.80;26.63;;;;;;;;;;5056223;28;20053;-66
2022/11/10 05:44:07;;;;;;;66.03;25.97;;;;;;;;;;5048166;28;20056;-66
2022/11/10 05:46:33;;;;;;;54.80;24.17;;;;;;;;;;5048133;28;20049;-66
2022/11/10 05:48:59;;;;;;;82.37;29.30;;;;;;;;;;5048144;28;20049;-66
2022/11/10 05:51:25;;;;;;;84.97;29.70;;;;;;;;;;5047754;28;20071;-66
2022/11/10 05:53:51;;;;;;;80.80;30.20;;;;;;;;;;5047671;28;20056;-66
2022/11/10 05:56:17;;;;;;;69.17;26.63;;;;;;;;;;5046132;28;20045;-66
2022/11/10 05:58:43;;;;;;;57.47;22.70;;;;;;;;;;5045511;28;20057;-66
2022/11/10 06:01:09;;;;;;;55.30;24.27;;;;;;;;;;5050522;28;20048;-66
2022/11/10 06:03:35;;;;;;;52.80;24.60;;;;;;;;;;5052403;28;20084;-66
2022/11/10 06:06:01;;;;;;;63.37;25.70;;;;;;;;;;5066357;28;20525;-66
2022/11/10 06:08:28;;;;;;;62.27;25.60;;;;;;;;;;5066205;28;20143;-66
2022/11/10 06:10:54;;;;;;;79.37;30.23;;;;;;;;;;5066963;28;20098;-66
2022/11/10 06:13:20;;;;;;;57.67;23.27;;;;;;;;;;5049688;28;20065;-66
2022/11/10 06:15:46;;;;;;;76.13;28.50;;;;;;;;;;5067363;28;20119;-66
2022/11/10 06:18:12;;;;;;;53.87;25.17;;;;;;;;;;5046683;28;20118;-66
2022/11/10 06:20:38;;;;;;;62.70;24.67;;;;;;;;;;5047707;28;20442;-66
2022/11/10 06:23:05;;;;;;;74.87;26.47;;;;;;;;;;5047521;28;20045;-66
2022/11/10 06:25:34;;;;;;;61.10;23.63;;;;;;;;;;5047778;28;20091;-66
2022/11/10 06:28:00;;;;;;;64.33;25.30;;;;;;;;;;5048917;28;20046;-66
2022/11/10 06:30:27;;;;;;;68.77;24.37;;;;;;;;;;5065042;28;20144;-66
2022/11/10 06:32:53;;;;;;;63.20;25.30;;;;;;;;;;5065724;28;20048;-66
2022/11/10 06:35:20;;;;;;;59.50;24.30;;;;;;;;;;5066863;28;20125;-66
2022/11/10 06:37:46;;;;;;;77.80;29.83;;;;;;;;;;5067417;28;20048;-67
2022/11/10 06:40:13;;;;;;;62.13;27.20;;;;;;;;;;5067617;28;20052;-66
2022/11/10 06:42:39;;;;;;;68.00;25.93;;;;;;;;;;5065131;28;20497;-66
2022/11/10 06:45:05;;;;;;;61.80;25.70;;;;;;;;;;5066275;28;20047;-66
2022/11/10 06:47:31;;;;;;;81.50;29.17;;;;;;;;;;5066664;28;20048;-66
2022/11/10 06:49:57;;;;;;;65.20;22.90;;;;;;;;;;5063636;28;20057;-66
2022/11/10 06:52:23;;;;;;;62.37;24.60;;;;;;;;;;5058921;28;20055;-66
2022/11/10 06:54:49;;;;;;;56.37;25.10;;;;;;;;;;5054796;28;20037;-66
2022/11/10 06:57:15;;;;;;;66.17;26.63;;;;;;;;;;5054744;28;20068;-66
2022/11/10 06:59:41;;;;;;;67.27;26.83;;;;;;;;;;5063072;28;20044;-66
2022/11/10 07:02:12;;;;;;;60.67;24.60;;;;;;;;;;5070941;28;20051;-66
2022/11/10 07:04:38;;;;;;;62.30;25.43;;;;;;;;;;5068288;28;20132;-66
2022/11/10 07:07:04;;;;;;;73.60;29.30;;;;;;;;;;5070081;28;20075;-66
2022/11/10 07:09:30;;;;;;;74.67;27.10;;;;;;;;;;5070188;28;20040;-66
2022/11/10 07:11:56;;;;;;;71.43;26.93;;;;;;;;;;5068866;28;20483;-66
2022/11/10 07:14:23;;;;;;;59.77;26.53;;;;;;;;;;5067386;28;20056;-66
2022/11/10 07:16:49;;;;;;;70.27;28.53;;;;;;;;;;5051242;28;20095;-66
2022/11/10 07:19:15;;;;;;;74.47;28.87;;;;;;;;;;5063235;28;20056;-66
2022/11/10 07:21:41;;;;;;;82.73;30.07;;;;;;;;;;5053356;28;20055;-66
2022/11/10 07:24:08;;;;;;;69.20;28.00;;;;;;;;;;5050242;28;20045;-66
2022/11/10 07:26:34;;;;;;;78.67;29.37;;;;;;;;;;5061177;28;20101;-66
2022/11/10 07:28:59;;;;;;;69.13;28.67;;;;;;;;;;5067392;28;20040;-66
2022/11/10 07:31:25;;;;;;;69.47;29.03;;;10.00;99.90;;;;;;5042719;28;20071;-66
2022/11/10 07:33:51;;;;;;;67.30;29.93;;;9.80;99.90;;;;;;5066457;28;20091;-66
2022/11/10 07:36:17;;;;;;;62.13;27.80;;;9.80;99.90;;;;;;5069957;28;20135;-66
2022/11/10 07:38:43;;;;;;;70.13;29.77;;;9.60;99.90;;;;;;5068390;28;20475;-66
2022/11/10 07:41:08;;;;;;;58.70;28.40;;;9.80;99.90;;;;;;5067749;28;20040;-66
2022/11/10 07:43:34;;;;;;;61.60;26.37;;;9.50;99.90;;;;;;5069196;28;20113;-66
2022/11/10 07:45:59;;;;;;;64.30;26.03;;;9.40;99.90;;;;;;5058692;28;20045;-66
2022/11/10 07:48:25;;;;;;;65.23;28.27;;;9.90;99.90;;;;;;5058947;28;20032;-66
2022/11/10 07:50:51;;;;;;;69.30;28.07;;;9.50;99.90;;;;;;5058219;28;20234;-66
2022/11/10 07:53:19;;;;;;;61.03;29.67;;;9.80;99.90;;;;;;5066382;28;20091;-66
2022/11/10 07:55:45;;;;;;;65.93;28.03;;;9.60;99.90;;;;;;5064625;28;20369;-66
2022/11/10 07:58:12;;;;;;;57.80;27.77;;;9.70;99.90;;;;;;5049484;28;20102;-66
2022/11/10 08:00:39;;;;;;;75.53;28.57;;;9.60;99.90;;;;;;5049934;28;20041;-66
2022/11/10 08:03:07;;;;;;;56.17;25.97;;;9.80;99.90;;;;;;5050251;28;20049;-66
2022/11/10 08:05:33;;;;;;;57.93;28.40;;;;;;;;;;5049361;28;20044;-66
2022/11/10 08:08:00;;;;;;;52.77;26.30;;;;;;;;;;5060479;28;20406;-66
2022/11/10 08:10:26;;;;;;;69.17;30.10;;;;;;;;;;5060478;28;20066;-66
2022/11/10 08:12:54;;;;;;;65.30;28.43;;;;;;;;;;5062274;28;20057;-66
2022/11/10 08:15:20;;;;;;;61.43;25.90;;;;;;;;;;5049228;28;20099;-66
2022/11/10 08:17:46;;;;;;;75.63;28.40;;;;;;;;;;5065874;28;20123;-66
2022/11/10 08:20:12;;;;;;;74.20;30.47;;;;;;;;;;5058800;28;20120;-66
2022/11/10 08:22:38;;;;;;;58.53;24.33;;;;;;;;;;5070243;28;20063;-66
2022/11/10 08:25:04;;;;;;;58.37;25.63;;;;;;;;;;5069259;28;20041;-66
2022/11/10 08:27:30;;;;;;;64.03;26.87;;;;;;;;;;5067175;28;20048;-66
2022/11/10 08:29:56;;;;;;;47.37;22.83;;;;;;;;;;5068610;28;20509;-66
2022/11/10 08:32:22;;;;;;;67.23;23.63;;;;;;;;;;5068916;28;20123;-66
2022/11/10 08:34:48;;;;;;;48.30;21.63;;;;;;;;;;5083222;28;20146;-65
2022/11/10 08:37:14;;;;;;;49.53;20.23;;;;;;;;;;5052910;28;20356;-66
2022/11/10 08:39:41;;;;;;;40.93;18.97;;;;;;;;;;5049043;28;20467;-65
2022/11/10 08:42:07;;;;;;;46.53;19.43;;;;;;;;;;5062503;28;20088;-66
2022/11/10 08:44:33;;;;;;;53.97;20.03;;;;;;;;;;5047927;28;20067;-66
2022/11/10 08:46:59;;;;;;;41.00;17.23;;;;;;;;;;5067514;28;20120;-66
2022/11/10 08:49:25;;;;;;;37.00;16.73;;;;;;;;;;5065923;28;20047;-66
2022/11/10 08:51:51;;;;;;;34.60;16.33;;;;;;;;;;5068167;28;20045;-66
2022/11/10 08:54:17;;;;;;;40.43;15.77;;;;;;;;;;5066289;28;20592;-65
2022/11/10 08:56:43;;;;;;;44.73;16.87;;;;;;;;;;5047947;28;20080;-66
2022/11/10 08:59:09;;;;;;;38.87;16.20;;;;;;;;;;5048105;28;20060;-66
2022/11/10 09:01:35;;;;;;;35.07;14.30;;;;;;;;;;5047281;28;20048;-66
2022/11/10 09:04:01;;;;;;;34.87;14.90;;;;;;;;;;5046571;28;20037;-65
2022/11/10 09:06:27;;;;;;;39.97;14.90;;;;;;;;;;5048160;28;20189;-66
2022/11/10 09:08:53;;;;;;;34.57;13.33;;;;;;;;;;5064617;28;20041;-66
2022/11/10 09:11:19;;;;;;;35.97;13.40;;;;;;;;;;5068058;28;20114;-66
2022/11/10 09:13:45;;;;;;;37.93;14.23;;;;;;;;;;5067216;28;20056;-66
2022/11/10 09:16:11;;;;;;;38.17;11.60;;;;;;;;;;5067415;28;20052;-66
2022/11/10 09:18:37;;;;;;;30.23;11.73;;;;;;;;;;5067976;28;20048;-66
2022/11/10 09:21:10;;;;;;;30.57;11.57;;;;;;;;;;5067932;28;20595;-66
2022/11/10 09:23:36;;;;;;;32.75;9.88;;;;;;;;;;5049410;28;20126;-65
2022/11/10 09:26:06;;;;;;;30.53;10.70;;;;;;;;;;5049593;28;20049;-66
2022/11/10 09:28:32;;;;;;;25.97;9.80;;;;;;;;;;5046863;28;20475;-66
2022/11/10 09:30:58;;;;;;;29.77;9.90;;;;;;;;;;5047766;28;20163;-66
2022/11/10 09:33:24;;;;;;;20.30;7.70;;;;;;;;;;5047661;28;20459;-66
2022/11/10 09:35:50;;;;;;;24.30;7.63;;;;;;;;;;5047304;28;20519;-66
2022/11/10 09:38:16;;;;;;;22.70;7.07;;;;;;;;;;5048292;28;20045;-65
2022/11/10 09:40:57;;;;;;;22.40;6.87;;;;;;;;;;5047533;28;20509;-66
2022/11/10 09:43:36;;;;;;;23.07;6.43;;;;;;;;;;5047754;28;20059;-66
2022/11/10 09:46:05;;;;;;;17.17;5.57;;;;;;;;;;5047261;28;20164;-66
2022/11/10 09:48:35;;;;;;;24.33;6.17;;;;;;;;;;5047534;28;20049;-66
2022/11/10 09:51:03;;;;;;;20.30;6.30;;;;;;;;;;5047710;28;20043;-66
2022/11/10 09:53:41;;;;;;;19.57;5.77;;;;;;;;;;5047783;28;20149;-65
2022/11/10 09:56:11;;;;;;;16.67;5.40;;;;;;;;;;5047802;28;20237;-65
2022/11/10 09:58:40;;;;;;;17.43;5.40;;;;;;;;;;5046214;28;20080;-66
2022/11/10 10:01:14;;;;;;;23.87;5.20;;;;;;;;;;5047297;28;20407;-66
2022/11/10 10:03:46;;;;;;;17.20;4.53;;;;;;;;;;5047662;28;20049;-66
2022/11/10 10:06:13;;;;;;;19.60;6.10;;;;;;;;;;5059676;28;20044;-65
2022/11/10 10:08:42;;;;;;;17.83;5.00;;;;;;;;;;5087791;28;20426;-65
2022/11/10 10:11:29;;;;;;;12.73;4.70;;;;;;;;;;5086935;28;20044;-65
2022/11/10 10:14:04;;;;;;;17.13;5.37;;;;;;;;;;5086561;28;20063;-66
2022/11/10 10:16:43;;;;;;;10.90;4.50;;;;;;;;;;5087478;28;20732;-65
2022/11/10 10:19:22;;;;;;;22.70;5.20;;;;;;;;;;5070585;28;20052;-65
2022/11/10 10:21:51;;;;;;;18.67;4.07;;;;;;;;;;5047176;28;20047;-65
2022/11/10 10:24:20;;;;;;;21.33;5.23;;;;;;;;;;5046998;28;20049;-65
2022/11/10 10:26:50;;;;;;;15.87;4.67;;;;;;;;;;5049784;28;20406;-66
2022/11/10 10:29:20;;;;;;;10.60;4.17;;;;;;;;;;5051130;28;20080;-65
2022/11/10 10:31:50;;;;;;;18.77;4.33;;;;;;;;;;5051253;28;20057;-65
2022/11/10 10:34:18;;;;;;;18.53;3.97;;;;;;;;;;5051225;28;20044;-66
2022/11/10 10:36:44;;;;;;;21.33;4.67;;;;;;;;;;5049807;28;20508;-65
2022/11/10 10:39:12;;;;;;;16.23;3.87;;;;;;;;;;5049092;28;20052;-65
2022/11/10 10:41:38;;;;;;;27.00;5.17;;;;;;;;;;5051069;28;20048;-65
2022/11/10 10:44:12;;;;;;;22.70;4.30;;;;;;;;;;5050877;28;20056;-65
2022/11/10 10:46:56;;;;;;;22.08;5.32;;;;;;;;;;5049148;28;20604;-65
2022/11/10 10:49:26;;;;;;;13.50;4.73;;;;;;;;;;5064716;28;20059;-66
2022/11/10 10:52:01;;;;;;;27.10;5.80;;;;;;;;;;5070591;28;20036;-65
2022/11/10 10:54:32;;;;;;;16.57;4.50;;;;;;;;;;5070443;28;20613;-65
2022/11/10 10:57:03;;;;;;;17.23;4.17;;;;;;;;;;5070096;28;20463;-65
2022/11/10 10:59:29;;;;;;;17.40;4.47;;;;;;;;;;5070175;28;20581;-65
2022/11/10 11:01:55;;;;;;;17.43;4.33;;;;;;;;;;5070587;28;20050;-65
2022/11/10 11:04:26;;;;;;;25.33;3.73;;;;;;;;;;5068509;28;20147;-65
2022/11/10 11:07:00;;;;;;;13.63;4.20;;;;;;;;;;5070406;28;20090;-66
2022/11/10 11:09:28;;;;;;;18.47;5.50;;;;;;;;;;5070229;28;20474;-65
2022/11/10 11:12:01;;;;;;;19.63;4.50;;;;;;;;;;5069982;28;20111;-65
2022/11/10 11:14:28;;;;;;;17.13;4.43;;;;;;;;;;5070268;28;20056;-65
2022/11/10 11:16:59;;;;;;;18.17;3.90;;;;;;;;;;5070058;28;20052;-66
2022/11/10 11:19:27;;;;;;;19.33;4.90;;;;;;;;;;5087554;28;20047;-65
2022/11/10 11:22:12;;;;;;;17.57;4.13;;;;;;;;;;5090091;28;20048;-66
2022/11/10 11:24:57;;;;;;;18.07;4.20;;;;;;;;;;5089567;28;20076;-65
2022/11/10 11:27:25;;;;;;;17.27;4.20;;;;;;;;;;5090400;28;20040;-66
2022/11/10 11:29:54;;;;;;;16.20;3.80;;;;;;;;;;5090042;28;20063;-65
2022/11/10 11:32:20;;;;;;;19.40;3.60;;;;;;;;;;5090227;28;20135;-65
2022/11/10 11:34:49;;;;;;;22.83;3.87;;;;;;;;;;5088641;28;20040;-66
2022/11/10 11:37:20;;;;;;;18.57;4.33;;;;;;;;;;5087497;28;20044;-65
2022/11/10 11:39:58;;;;;;;16.90;4.20;;;;;;;;;;5089932;28;20409;-65
2022/11/10 11:42:42;;;;;;;18.87;4.40;;;;;;;;;;5090303;28;20040;-65
2022/11/10 11:45:11;;;;;;;16.70;3.77;;;;;;;;;;5089945;28;20562;-65
2022/11/10 11:47:55;;;;;;;14.63;3.30;;;;;;;;;;5050075;28;20052;-65
2022/11/10 11:50:28;;;;;;;24.17;4.30;;;;;;;;;;5048990;28;20041;-66
2022/11/10 11:53:01;;;;;;;14.43;3.42;;;;;;;;;;5049328;28;20044;-65
2022/11/10 11:55:27;;;;;;;;;;;;;;;;;;5049997;28;20072;-65
2022/11/10 11:57:59;;;;;;;21.23;3.53;;;;;;;;;;5049202;28;20389;-65
2022/11/10 12:00:25;;;;;;;13.87;2.97;;;;;;;;;;5049650;28;20374;-65
2022/11/10 12:03:01;;;;;;;11.93;2.60;;;;;;;;;;5049380;28;20049;-65
2022/11/10 12:05:27;;;;;;;19.03;2.83;;;;;;;;;;5049543;28;20044;-65
2022/11/10 12:08:12;;;;;;;14.20;4.13;;;;;;;;;;5048734;28;20444;-65
2022/11/10 12:10:44;;;;;;;18.57;3.30;;;;;;;;;;5049172;28;20102;-65
2022/11/10 12:13:15;;;;;;;20.27;3.90;;;;;;;;;;5062426;28;20544;-65
2022/11/10 12:15:46;;;;;;;16.00;2.53;;;;;;;;;;5058534;28;20056;-64
2022/11/10 12:18:22;;;;;;;23.67;3.87;;;;;;;;;;5048588;28;20049;-64
2022/11/10 12:20:48;;;;;;;14.87;2.77;;;;;;;;;;5049267;28;20080;-65
2022/11/10 12:23:18;;;;;;;15.00;2.90;;;;;;;;;;5048333;28;20427;-64
2022/11/10 12:25:43;;;;;;;21.60;3.33;;;;;;;;;;5048656;28;20072;-64
2022/11/10 12:28:17;;;;;;;19.23;3.60;;;;;;;;;;5049105;28;20183;-64
2022/11/10 12:30:43;;;;;;;17.95;3.72;;;;;;;;;;5048554;28;20053;-64
2022/11/10 12:33:38;;;;;;;14.07;2.63;;;;;;;;;;5063762;28;20040;-64
2022/11/10 12:36:11;;;;;;;15.33;2.90;;;;;;;;;;5063523;28;20059;-64
2022/11/10 12:38:56;;;;;;;17.00;3.08;;;;;;;;;;5059475;28;20049;-65
2022/11/10 12:41:23;;;;;;;15.80;2.90;;;;;;;;;;5053596;28;20044;-64
2022/11/10 12:44:12;;;;;;;12.43;2.90;;;;;;;;;;5065127;28;20399;-64
2022/11/10 12:46:41;;;;;;;17.63;4.10;;;;;;;;;;5068597;28;20080;-64
2022/11/10 12:49:13;;;;;;;16.23;2.90;;;;;;;;;;5068578;28;20041;-64
2022/11/10 12:51:55;;;;;;;10.23;2.72;;;;;;;;;;5068675;28;20094;-64
2022/11/10 12:54:22;;;;;;;16.60;3.10;;;;;;;;;;5048419;28;20049;-64
2022/11/10 12:56:53;;;;;;;15.33;3.10;;;;;;;;;;5056064;28;20053;-64
2022/11/10 12:59:19;;;;;;;15.30;3.63;;;;;;;;;;5054981;28;20480;-64
2022/11/10 13:01:46;;;;;;;12.43;2.80;;;;;;;;;;5047652;28;20120;-63
2022/11/10 13:04:15;;;;;;;14.47;3.40;;;;;;;;;;5048740;28;20044;-63
2022/11/10 13:06:48;;;;;;;12.37;3.30;;;;;;;;;;5048725;28;20401;-63
2022/11/10 13:09:26;;;;;;;11.43;2.67;;;;;;;;;;5048829;28;20041;-63
2022/11/10 13:12:17;;;;;;;11.07;2.40;;;;;;;;;;5048375;28;20068;-63
2022/11/10 13:14:44;;;;;;;18.40;2.93;;;;;;;;;;5045621;28;20629;-63
2022/11/10 13:17:11;;;;;;;23.53;3.30;;;;;;;;;;5050179;28;20049;-63
2022/11/10 13:19:37;;;;;;;11.90;2.80;;;;;;;;;;5076690;28;20533;-63
2022/11/10 13:22:05;;;;;;;20.27;3.90;;;;;;;;;;5068829;28;20044;-63
2022/11/10 13:24:32;;;;;;;18.93;3.70;;;;;;;;;;5067554;28;20056;-63
2022/11/10 13:27:24;;;;;;;13.93;2.60;;;;;;;;;;5068302;28;20055;-64
2022/11/10 13:29:50;;;;;;;17.63;2.70;;;;;;;;;;5052117;28;20060;-63
2022/11/10 13:32:27;;;;;;;18.13;3.27;;;;;;;;;;5066779;28;20032;-64
2022/11/10 13:34:54;;;;;;;14.03;2.80;;;;;;;;;;5068255;28;20044;-63
2022/11/10 13:37:29;;;;;;;15.50;2.63;;;;;;;;;;5068365;28;20044;-63
2022/11/10 13:40:14;;;;;;;11.90;2.40;;;;;;;;;;5067888;28;20040;-63
2022/11/10 13:42:40;;;;;;;11.83;2.53;;;;;;;;;;5068595;28;20044;-63
2022/11/10 13:45:41;;;;;;;13.10;2.97;;;;;;;;;;5065471;28;20047;-63
2022/11/10 13:48:13;;;;;;;20.13;3.20;;;;;;;;;;5025073;28;20511;-63
2022/11/10 13:50:39;;;;;;;12.60;2.27;;;;;;;;;;5050009;28;20052;-63
2022/11/10 13:53:31;;;;;;;14.67;3.00;;;;;;;;;;5068036;28;20059;-63
2022/11/10 13:55:57;;;;;;;15.17;2.83;;;;;;;;;;5053326;28;20049;-63
2022/11/10 13:58:25;;;;;;;18.87;4.00;;;;;;;;;;5055763;28;20040;-63
2022/11/10 14:01:11;;;;;;;17.47;3.47;;;;;;;;;;5057875;28;20052;-63
2022/11/10 14:03:51;;;;;;;16.23;3.10;;;;;;;;;;5052110;28;20037;-63
2022/11/10 14:06:22;;;;;;;17.93;3.53;;;;;;;;;;5065016;28;20052;-63
2022/11/10 14:08:52;;;;;;;23.17;4.00;;;;;;;;;;5071488;28;20769;-63
2022/11/10 14:11:21;;;;;;;14.00;2.90;;;;;;;;;;5068280;28;20124;-63
2022/11/10 14:13:50;;;;;;;16.70;2.90;;;;;;;;;;5058056;28;20061;-63
2022/11/10 14:16:22;;;;;;;11.93;2.70;;;;;;;;;;5066395;28;20086;-63
2022/11/10 14:19:03;;;;;;;13.73;3.17;;;;;;;;;;5071738;28;20159;-63
2022/11/10 14:21:32;;;;;;;14.77;3.27;;;;;;;;;;5071074;28;20515;-63
2022/11/10 14:24:12;;;;;;;14.93;2.53;;;;;;;;;;5066373;28;20052;-62
2022/11/10 14:26:58;;;;;;;14.07;2.97;;;;;;;;;;5069882;28;20613;-63
2022/11/10 14:29:29;;;;;;;16.57;2.97;;;;;;;;;;5068748;28;20083;-63
2022/11/10 14:32:00;;;;;;;14.20;2.43;;;;;;;;;;5058647;28;20103;-62
2022/11/10 14:34:26;;;;;;;15.47;4.00;;;;;;;;;;5050772;28;20052;-63
2022/11/10 14:36:53;;;;;;;15.77;2.80;;;;;;;;;;5068992;28;20098;-62
2022/11/10 14:39:21;;;;;;;14.13;3.37;;;;;;;;;;5061968;28;20426;-63